sensor_id;sensor_type;location;lat;lon;timestamp;P1;durP1;ratioP1;P2;durP2;ratioP2
75626;SDS011;64211;49.404;11.034;2022-12-29T00:00:02;1.73;;;1.20;;
75626;SDS011;64211;49.404;11.034;2022-12-29T00:02:32;3.28;;;1.67;;
75626;SDS011;64211;49.404;11.034;2022-12-29T00:04:59;3.33;;;1.55;;
75626;SDS011;64211;49.404;11.034;2022-12-29T00:07:25;2.90;;;1.40;;
75626;SDS011;64211;49.404;11.034;2022-12-29T00:09:52;1.73;;;1.20;;
75626;SDS011;64211;49.404;11.034;2022-12-29T00:12:18;2.33;;;1.40;;
75626;SDS011;64211;49.404;11.034;2022-12-29T00:14:45;2.40;;;1.20;;
75626;SDS011;64211;49.404;11.034;2022-12-29T00:17:30;5.03;;;1.50;;
75626;SDS011;64211;49.404;11.034;2022-12-29T00:19:57;2.60;;;1.30;;
75626;SDS011;64211;49.404;11.034;2022-12-29T00:22:43;2.40;;;1.38;;
75626;SDS011;64211;49.404;11.034;2022-12-29T00:25:28;3.13;;;1.30;;
75626;SDS011;64211;49.404;11.034;2022-12-29T00:28:13;1.60;;;1.38;;
75626;SDS011;64211;49.404;11.034;2022-12-29T00:30:59;2.55;;;1.23;;
75626;SDS011;64211;49.404;11.034;2022-12-29T00:33:45;2.53;;;1.35;;
75626;SDS011;64211;49.404;11.034;2022-12-29T00:36:31;3.05;;;1.50;;
75626;SDS011;64211;49.404;11.034;2022-12-29T00:39:04;2.10;;;1.23;;
75626;SDS011;64211;49.404;11.034;2022-12-29T00:41:53;4.20;;;1.23;;
75626;SDS011;64211;49.404;11.034;2022-12-29T00:44:38;3.53;;;1.50;;
75626;SDS011;64211;49.404;11.034;2022-12-29T00:47:05;2.22;;;1.30;;
75626;SDS011;64211;49.404;11.034;2022-12-29T00:49:32;2.75;;;1.30;;
75626;SDS011;64211;49.404;11.034;2022-12-29T00:54:28;3.90;;;1.42;;
75626;SDS011;64211;49.404;11.034;2022-12-29T00:56:55;4.80;;;2.10;;
75626;SDS011;64211;49.404;11.034;2022-12-29T00:59:22;2.67;;;1.40;;
75626;SDS011;64211;49.404;11.034;2022-12-29T01:01:50;4.13;;;1.60;;
75626;SDS011;64211;49.404;11.034;2022-12-29T01:04:19;4.82;;;1.98;;
75626;SDS011;64211;49.404;11.034;2022-12-29T01:06:46;3.88;;;1.38;;
75626;SDS011;64211;49.404;11.034;2022-12-29T01:09:13;4.72;;;1.77;;
75626;SDS011;64211;49.404;11.034;2022-12-29T01:11:59;2.65;;;1.25;;
75626;SDS011;64211;49.404;11.034;2022-12-29T01:14:26;2.25;;;1.30;;
75626;SDS011;64211;49.404;11.034;2022-12-29T01:16:53;3.90;;;1.60;;
75626;SDS011;64211;49.404;11.034;2022-12-29T01:19:20;2.30;;;1.30;;
75626;SDS011;64211;49.404;11.034;2022-12-29T01:21:48;3.17;;;1.50;;
75626;SDS011;64211;49.404;11.034;2022-12-29T01:24:15;3.40;;;1.67;;
75626;SDS011;64211;49.404;11.034;2022-12-29T01:26:43;2.72;;;1.60;;
75626;SDS011;64211;49.404;11.034;2022-12-29T01:29:10;2.88;;;1.50;;
75626;SDS011;64211;49.404;11.034;2022-12-29T01:31:37;2.75;;;1.30;;
75626;SDS011;64211;49.404;11.034;2022-12-29T01:34:04;3.00;;;1.88;;
75626;SDS011;64211;49.404;11.034;2022-12-29T01:36:31;6.43;;;1.45;;
75626;SDS011;64211;49.404;11.034;2022-12-29T01:38:57;3.00;;;1.40;;
75626;SDS011;64211;49.404;11.034;2022-12-29T01:41:24;1.85;;;1.27;;
75626;SDS011;64211;49.404;11.034;2022-12-29T01:43:52;3.25;;;1.55;;
75626;SDS011;64211;49.404;11.034;2022-12-29T01:46:26;2.22;;;1.35;;
75626;SDS011;64211;49.404;11.034;2022-12-29T01:49:21;3.17;;;1.67;;
75626;SDS011;64211;49.404;11.034;2022-12-29T01:54:38;3.55;;;1.63;;
75626;SDS011;64211;49.404;11.034;2022-12-29T01:57:14;2.10;;;1.25;;
75626;SDS011;64211;49.404;11.034;2022-12-29T01:59:49;2.35;;;1.35;;
75626;SDS011;64211;49.404;11.034;2022-12-29T02:02:30;3.05;;;1.60;;
75626;SDS011;64211;49.404;11.034;2022-12-29T02:04:59;2.85;;;1.45;;
75626;SDS011;64211;49.404;11.034;2022-12-29T02:07:30;3.03;;;1.52;;
75626;SDS011;64211;49.404;11.034;2022-12-29T02:09:57;2.80;;;1.30;;
75626;SDS011;64211;49.404;11.034;2022-12-29T02:12:24;3.03;;;1.20;;
75626;SDS011;64211;49.404;11.034;2022-12-29T02:14:52;2.47;;;1.20;;
75626;SDS011;64211;49.404;11.034;2022-12-29T02:20:20;2.83;;;1.40;;
75626;SDS011;64211;49.404;11.034;2022-12-29T02:23:24;2.55;;;1.20;;
75626;SDS011;64211;49.404;11.034;2022-12-29T02:26:16;2.35;;;1.40;;
75626;SDS011;64211;49.404;11.034;2022-12-29T02:29:13;2.30;;;1.20;;
75626;SDS011;64211;49.404;11.034;2022-12-29T02:31:52;3.15;;;1.42;;
75626;SDS011;64211;49.404;11.034;2022-12-29T02:34:36;2.20;;;1.05;;
75626;SDS011;64211;49.404;11.034;2022-12-29T02:37:17;2.17;;;1.38;;
75626;SDS011;64211;49.404;11.034;2022-12-29T02:42:50;2.42;;;1.30;;
75626;SDS011;64211;49.404;11.034;2022-12-29T02:50:49;2.47;;;1.10;;
75626;SDS011;64211;49.404;11.034;2022-12-29T02:53:30;2.33;;;1.20;;
75626;SDS011;64211;49.404;11.034;2022-12-29T02:56:19;2.00;;;1.23;;
75626;SDS011;64211;49.404;11.034;2022-12-29T02:58:45;1.90;;;1.27;;
75626;SDS011;64211;49.404;11.034;2022-12-29T03:09:34;1.83;;;1.17;;
75626;SDS011;64211;49.404;11.034;2022-12-29T03:14:55;1.60;;;1.10;;
75626;SDS011;64211;49.404;11.034;2022-12-29T03:17:51;1.73;;;1.25;;
75626;SDS011;64211;49.404;11.034;2022-12-29T03:20:25;1.67;;;1.20;;
75626;SDS011;64211;49.404;11.034;2022-12-29T03:22:58;2.08;;;1.10;;
75626;SDS011;64211;49.404;11.034;2022-12-29T03:25:29;1.98;;;1.20;;
75626;SDS011;64211;49.404;11.034;2022-12-29T03:28:42;2.35;;;1.35;;
75626;SDS011;64211;49.404;11.034;2022-12-29T03:30:52;2.30;;;1.20;;
75626;SDS011;64211;49.404;11.034;2022-12-29T03:33:20;1.98;;;1.48;;
75626;SDS011;64211;49.404;11.034;2022-12-29T03:35:52;2.05;;;1.17;;
75626;SDS011;64211;49.404;11.034;2022-12-29T03:38:34;3.38;;;1.20;;
75626;SDS011;64211;49.404;11.034;2022-12-29T03:41:07;2.15;;;1.13;;
75626;SDS011;64211;49.404;11.034;2022-12-29T03:43:37;2.60;;;1.10;;
75626;SDS011;64211;49.404;11.034;2022-12-29T03:46:03;2.42;;;1.20;;
75626;SDS011;64211;49.404;11.034;2022-12-29T03:48:30;1.90;;;1.20;;
75626;SDS011;64211;49.404;11.034;2022-12-29T03:50:59;2.35;;;1.33;;
75626;SDS011;64211;49.404;11.034;2022-12-29T03:53:26;2.05;;;1.30;;
75626;SDS011;64211;49.404;11.034;2022-12-29T03:55:52;2.55;;;1.58;;
75626;SDS011;64211;49.404;11.034;2022-12-29T03:58:18;2.75;;;0.98;;
75626;SDS011;64211;49.404;11.034;2022-12-29T04:00:45;2.65;;;1.27;;
75626;SDS011;64211;49.404;11.034;2022-12-29T04:03:11;2.55;;;1.20;;
75626;SDS011;64211;49.404;11.034;2022-12-29T04:05:38;1.73;;;1.15;;
75626;SDS011;64211;49.404;11.034;2022-12-29T04:08:04;3.75;;;1.20;;
75626;SDS011;64211;49.404;11.034;2022-12-29T04:10:31;2.05;;;1.35;;
75626;SDS011;64211;49.404;11.034;2022-12-29T04:12:57;3.15;;;1.20;;
75626;SDS011;64211;49.404;11.034;2022-12-29T04:15:24;2.38;;;1.33;;
75626;SDS011;64211;49.404;11.034;2022-12-29T04:17:52;1.77;;;1.10;;
75626;SDS011;64211;49.404;11.034;2022-12-29T04:20:19;3.13;;;1.30;;
75626;SDS011;64211;49.404;11.034;2022-12-29T04:23:04;2.38;;;1.35;;
75626;SDS011;64211;49.404;11.034;2022-12-29T04:25:32;1.98;;;1.20;;
75626;SDS011;64211;49.404;11.034;2022-12-29T04:27:59;1.98;;;1.20;;
75626;SDS011;64211;49.404;11.034;2022-12-29T04:30:26;2.28;;;1.30;;
75626;SDS011;64211;49.404;11.034;2022-12-29T04:32:52;2.60;;;1.30;;
75626;SDS011;64211;49.404;11.034;2022-12-29T04:35:19;2.13;;;1.40;;
75626;SDS011;64211;49.404;11.034;2022-12-29T04:37:45;1.45;;;1.08;;
75626;SDS011;64211;49.404;11.034;2022-12-29T04:40:12;2.95;;;1.60;;
75626;SDS011;64211;49.404;11.034;2022-12-29T04:42:38;2.05;;;1.23;;
75626;SDS011;64211;49.404;11.034;2022-12-29T04:45:05;1.88;;;1.20;;
75626;SDS011;64211;49.404;11.034;2022-12-29T04:47:32;2.38;;;1.20;;
75626;SDS011;64211;49.404;11.034;2022-12-29T04:49:59;2.80;;;1.45;;
75626;SDS011;64211;49.404;11.034;2022-12-29T04:52:26;1.70;;;1.20;;
75626;SDS011;64211;49.404;11.034;2022-12-29T04:54:52;1.80;;;1.25;;
75626;SDS011;64211;49.404;11.034;2022-12-29T04:57:19;1.92;;;1.23;;
75626;SDS011;64211;49.404;11.034;2022-12-29T04:59:45;2.90;;;1.38;;
75626;SDS011;64211;49.404;11.034;2022-12-29T05:02:12;2.63;;;1.20;;
75626;SDS011;64211;49.404;11.034;2022-12-29T05:04:39;2.58;;;1.20;;
75626;SDS011;64211;49.404;11.034;2022-12-29T05:07:06;2.25;;;1.25;;
75626;SDS011;64211;49.404;11.034;2022-12-29T05:09:32;2.35;;;1.20;;
75626;SDS011;64211;49.404;11.034;2022-12-29T05:11:59;2.35;;;1.48;;
75626;SDS011;64211;49.404;11.034;2022-12-29T05:14:25;2.70;;;1.67;;
75626;SDS011;64211;49.404;11.034;2022-12-29T05:16:52;3.13;;;1.42;;
75626;SDS011;64211;49.404;11.034;2022-12-29T05:19:18;2.63;;;1.27;;
75626;SDS011;64211;49.404;11.034;2022-12-29T05:21:45;2.30;;;1.50;;
75626;SDS011;64211;49.404;11.034;2022-12-29T05:24:11;3.30;;;1.48;;
75626;SDS011;64211;49.404;11.034;2022-12-29T05:26:38;3.85;;;1.65;;
75626;SDS011;64211;49.404;11.034;2022-12-29T05:29:04;2.17;;;1.27;;
75626;SDS011;64211;49.404;11.034;2022-12-29T05:31:31;2.00;;;1.20;;
75626;SDS011;64211;49.404;11.034;2022-12-29T05:33:57;3.38;;;1.40;;
75626;SDS011;64211;49.404;11.034;2022-12-29T05:36:24;3.05;;;1.50;;
75626;SDS011;64211;49.404;11.034;2022-12-29T05:38:50;2.47;;;1.10;;
75626;SDS011;64211;49.404;11.034;2022-12-29T05:41:17;2.33;;;1.45;;
75626;SDS011;64211;49.404;11.034;2022-12-29T05:43:43;2.05;;;1.17;;
75626;SDS011;64211;49.404;11.034;2022-12-29T05:46:10;2.95;;;1.30;;
75626;SDS011;64211;49.404;11.034;2022-12-29T05:48:37;2.53;;;1.30;;
75626;SDS011;64211;49.404;11.034;2022-12-29T05:51:03;1.85;;;1.30;;
75626;SDS011;64211;49.404;11.034;2022-12-29T05:53:30;2.35;;;1.40;;
75626;SDS011;64211;49.404;11.034;2022-12-29T05:55:57;3.97;;;1.40;;
75626;SDS011;64211;49.404;11.034;2022-12-29T05:58:23;3.58;;;1.27;;
75626;SDS011;64211;49.404;11.034;2022-12-29T06:00:49;2.28;;;1.30;;
75626;SDS011;64211;49.404;11.034;2022-12-29T06:03:16;2.60;;;1.23;;
75626;SDS011;64211;49.404;11.034;2022-12-29T06:05:45;2.20;;;1.30;;
75626;SDS011;64211;49.404;11.034;2022-12-29T06:08:12;2.42;;;1.23;;
75626;SDS011;64211;49.404;11.034;2022-12-29T06:10:39;2.22;;;1.20;;
75626;SDS011;64211;49.404;11.034;2022-12-29T06:13:05;3.92;;;1.45;;
75626;SDS011;64211;49.404;11.034;2022-12-29T06:15:32;2.08;;;1.30;;
75626;SDS011;64211;49.404;11.034;2022-12-29T06:17:59;2.08;;;1.50;;
75626;SDS011;64211;49.404;11.034;2022-12-29T06:20:26;2.55;;;1.20;;
75626;SDS011;64211;49.404;11.034;2022-12-29T06:22:52;3.38;;;1.48;;
75626;SDS011;64211;49.404;11.034;2022-12-29T06:25:18;2.78;;;1.13;;
75626;SDS011;64211;49.404;11.034;2022-12-29T06:27:45;3.33;;;1.30;;
75626;SDS011;64211;49.404;11.034;2022-12-29T06:30:11;3.00;;;1.40;;
75626;SDS011;64211;49.404;11.034;2022-12-29T06:32:39;3.92;;;1.30;;
75626;SDS011;64211;49.404;11.034;2022-12-29T06:35:05;1.85;;;1.10;;
75626;SDS011;64211;49.404;11.034;2022-12-29T06:37:32;2.38;;;1.20;;
75626;SDS011;64211;49.404;11.034;2022-12-29T06:39:59;2.53;;;1.20;;
75626;SDS011;64211;49.404;11.034;2022-12-29T06:42:25;2.53;;;1.10;;
75626;SDS011;64211;49.404;11.034;2022-12-29T06:44:51;2.33;;;1.20;;
75626;SDS011;64211;49.404;11.034;2022-12-29T06:47:18;2.10;;;1.05;;
75626;SDS011;64211;49.404;11.034;2022-12-29T06:49:45;2.47;;;1.40;;
75626;SDS011;64211;49.404;11.034;2022-12-29T06:52:11;2.70;;;1.17;;
75626;SDS011;64211;49.404;11.034;2022-12-29T06:54:39;1.75;;;1.00;;
75626;SDS011;64211;49.404;11.034;2022-12-29T06:57:05;1.33;;;1.10;;
75626;SDS011;64211;49.404;11.034;2022-12-29T06:59:32;2.20;;;1.23;;
75626;SDS011;64211;49.404;11.034;2022-12-29T07:01:59;3.42;;;1.40;;
75626;SDS011;64211;49.404;11.034;2022-12-29T07:04:28;2.50;;;1.30;;
75626;SDS011;64211;49.404;11.034;2022-12-29T07:06:55;2.10;;;1.38;;
75626;SDS011;64211;49.404;11.034;2022-12-29T07:09:21;3.00;;;1.50;;
75626;SDS011;64211;49.404;11.034;2022-12-29T07:11:48;2.08;;;1.38;;
75626;SDS011;64211;49.404;11.034;2022-12-29T07:14:14;2.90;;;1.40;;
75626;SDS011;64211;49.404;11.034;2022-12-29T07:16:40;2.45;;;1.17;;
75626;SDS011;64211;49.404;11.034;2022-12-29T07:19:07;2.38;;;1.40;;
75626;SDS011;64211;49.404;11.034;2022-12-29T07:21:33;3.58;;;1.25;;
75626;SDS011;64211;49.404;11.034;2022-12-29T07:24:00;2.05;;;1.20;;
75626;SDS011;64211;49.404;11.034;2022-12-29T07:26:26;2.55;;;1.10;;
75626;SDS011;64211;49.404;11.034;2022-12-29T07:29:01;1.95;;;1.30;;
75626;SDS011;64211;49.404;11.034;2022-12-29T07:33:55;1.98;;;1.15;;
75626;SDS011;64211;49.404;11.034;2022-12-29T07:36:21;2.78;;;1.48;;
75626;SDS011;64211;49.404;11.034;2022-12-29T07:38:48;2.90;;;1.55;;
75626;SDS011;64211;49.404;11.034;2022-12-29T07:41:14;2.75;;;1.50;;
75626;SDS011;64211;49.404;11.034;2022-12-29T07:43:42;3.05;;;1.65;;
75626;SDS011;64211;49.404;11.034;2022-12-29T07:46:08;3.25;;;1.70;;
75626;SDS011;64211;49.404;11.034;2022-12-29T07:48:56;3.78;;;1.73;;
75626;SDS011;64211;49.404;11.034;2022-12-29T07:51:22;2.70;;;1.30;;
75626;SDS011;64211;49.404;11.034;2022-12-29T07:53:49;2.70;;;1.20;;
75626;SDS011;64211;49.404;11.034;2022-12-29T07:56:15;4.18;;;1.33;;
75626;SDS011;64211;49.404;11.034;2022-12-29T07:58:41;1.70;;;1.05;;
75626;SDS011;64211;49.404;11.034;2022-12-29T08:01:08;2.85;;;1.58;;
75626;SDS011;64211;49.404;11.034;2022-12-29T08:03:35;2.17;;;1.30;;
75626;SDS011;64211;49.404;11.034;2022-12-29T08:06:02;2.40;;;1.15;;
75626;SDS011;64211;49.404;11.034;2022-12-29T08:08:29;2.45;;;1.40;;
75626;SDS011;64211;49.404;11.034;2022-12-29T08:10:55;2.22;;;1.10;;
75626;SDS011;64211;49.404;11.034;2022-12-29T08:13:21;3.95;;;1.52;;
75626;SDS011;64211;49.404;11.034;2022-12-29T08:15:49;3.30;;;1.60;;
75626;SDS011;64211;49.404;11.034;2022-12-29T08:18:15;1.95;;;1.40;;
75626;SDS011;64211;49.404;11.034;2022-12-29T08:20:41;3.20;;;1.63;;
75626;SDS011;64211;49.404;11.034;2022-12-29T08:23:08;3.55;;;1.48;;
75626;SDS011;64211;49.404;11.034;2022-12-29T08:25:34;4.32;;;1.63;;
75626;SDS011;64211;49.404;11.034;2022-12-29T08:28:01;3.05;;;1.40;;
75626;SDS011;64211;49.404;11.034;2022-12-29T08:30:27;3.00;;;1.95;;
75626;SDS011;64211;49.404;11.034;2022-12-29T08:32:54;3.42;;;1.60;;
75626;SDS011;64211;49.404;11.034;2022-12-29T08:35:20;2.70;;;1.50;;
75626;SDS011;64211;49.404;11.034;2022-12-29T08:37:47;2.72;;;1.50;;
75626;SDS011;64211;49.404;11.034;2022-12-29T08:40:13;2.08;;;1.50;;
75626;SDS011;64211;49.404;11.034;2022-12-29T08:42:40;3.42;;;2.03;;
75626;SDS011;64211;49.404;11.034;2022-12-29T08:45:06;3.63;;;2.13;;
75626;SDS011;64211;49.404;11.034;2022-12-29T08:47:34;3.30;;;2.10;;
75626;SDS011;64211;49.404;11.034;2022-12-29T08:50:01;5.43;;;2.00;;
75626;SDS011;64211;49.404;11.034;2022-12-29T08:52:27;4.00;;;1.58;;
75626;SDS011;64211;49.404;11.034;2022-12-29T08:54:54;2.78;;;1.77;;
75626;SDS011;64211;49.404;11.034;2022-12-29T08:57:20;2.08;;;1.73;;
75626;SDS011;64211;49.404;11.034;2022-12-29T08:59:46;2.47;;;1.58;;
75626;SDS011;64211;49.404;11.034;2022-12-29T09:02:13;2.05;;;1.42;;
75626;SDS011;64211;49.404;11.034;2022-12-29T09:04:47;4.68;;;1.48;;
75626;SDS011;64211;49.404;11.034;2022-12-29T09:07:13;2.38;;;1.20;;
75626;SDS011;64211;49.404;11.034;2022-12-29T09:09:40;2.78;;;1.80;;
75626;SDS011;64211;49.404;11.034;2022-12-29T09:12:06;2.47;;;1.40;;
75626;SDS011;64211;49.404;11.034;2022-12-29T09:14:33;3.47;;;1.45;;
75626;SDS011;64211;49.404;11.034;2022-12-29T09:16:59;2.80;;;1.80;;
75626;SDS011;64211;49.404;11.034;2022-12-29T09:19:44;2.60;;;1.05;;
75626;SDS011;64211;49.404;11.034;2022-12-29T09:22:11;2.35;;;1.40;;
75626;SDS011;64211;49.404;11.034;2022-12-29T09:24:37;2.50;;;1.38;;
75626;SDS011;64211;49.404;11.034;2022-12-29T09:27:03;2.78;;;1.30;;
75626;SDS011;64211;49.404;11.034;2022-12-29T09:29:30;2.03;;;1.52;;
75626;SDS011;64211;49.404;11.034;2022-12-29T09:31:57;2.92;;;1.83;;
75626;SDS011;64211;49.404;11.034;2022-12-29T09:34:23;2.45;;;1.33;;
75626;SDS011;64211;49.404;11.034;2022-12-29T09:36:49;2.92;;;1.45;;
75626;SDS011;64211;49.404;11.034;2022-12-29T09:39:16;1.52;;;1.00;;
75626;SDS011;64211;49.404;11.034;2022-12-29T09:41:45;2.45;;;1.40;;
75626;SDS011;64211;49.404;11.034;2022-12-29T09:44:26;1.92;;;1.30;;
75626;SDS011;64211;49.404;11.034;2022-12-29T09:47:04;3.03;;;1.42;;
75626;SDS011;64211;49.404;11.034;2022-12-29T09:49:42;6.07;;;1.80;;
75626;SDS011;64211;49.404;11.034;2022-12-29T09:52:15;5.00;;;2.05;;
75626;SDS011;64211;49.404;11.034;2022-12-29T09:54:50;2.95;;;1.83;;
75626;SDS011;64211;49.404;11.034;2022-12-29T09:57:29;2.55;;;1.25;;
75626;SDS011;64211;49.404;11.034;2022-12-29T10:00:06;2.17;;;1.25;;
75626;SDS011;64211;49.404;11.034;2022-12-29T10:05:18;2.60;;;1.35;;
75626;SDS011;64211;49.404;11.034;2022-12-29T10:08:04;2.28;;;1.42;;
75626;SDS011;64211;49.404;11.034;2022-12-29T10:10:46;5.30;;;1.80;;
75626;SDS011;64211;49.404;11.034;2022-12-29T10:16:05;2.85;;;1.70;;
75626;SDS011;64211;49.404;11.034;2022-12-29T10:22:01;3.78;;;1.25;;
75626;SDS011;64211;49.404;11.034;2022-12-29T10:24:39;2.55;;;1.20;;
75626;SDS011;64211;49.404;11.034;2022-12-29T10:28:42;2.87;;;1.57;;
75626;SDS011;64211;49.404;11.034;2022-12-29T10:31:24;3.00;;;1.55;;
75626;SDS011;64211;49.404;11.034;2022-12-29T10:33:57;3.65;;;1.35;;
75626;SDS011;64211;49.404;11.034;2022-12-29T10:36:34;1.80;;;1.50;;
75626;SDS011;64211;49.404;11.034;2022-12-29T10:39:16;1.83;;;1.13;;
75626;SDS011;64211;49.404;11.034;2022-12-29T10:41:53;2.30;;;1.35;;
75626;SDS011;64211;49.404;11.034;2022-12-29T10:44:25;2.95;;;1.35;;
75626;SDS011;64211;49.404;11.034;2022-12-29T10:46:57;2.42;;;1.17;;
75626;SDS011;64211;49.404;11.034;2022-12-29T10:49:26;2.00;;;1.10;;
75626;SDS011;64211;49.404;11.034;2022-12-29T10:51:56;2.15;;;1.27;;
75626;SDS011;64211;49.404;11.034;2022-12-29T10:59:59;2.78;;;1.30;;
75626;SDS011;64211;49.404;11.034;2022-12-29T11:02:39;2.53;;;1.10;;
75626;SDS011;64211;49.404;11.034;2022-12-29T11:05:19;2.53;;;1.27;;
75626;SDS011;64211;49.404;11.034;2022-12-29T11:07:57;1.85;;;1.10;;
75626;SDS011;64211;49.404;11.034;2022-12-29T11:13:00;1.88;;;1.10;;
75626;SDS011;64211;49.404;11.034;2022-12-29T11:15:38;3.05;;;1.40;;
75626;SDS011;64211;49.404;11.034;2022-12-29T11:21:06;4.25;;;1.27;;
75626;SDS011;64211;49.404;11.034;2022-12-29T11:26:25;3.03;;;1.23;;
75626;SDS011;64211;49.404;11.034;2022-12-29T11:29:17;3.00;;;1.48;;
75626;SDS011;64211;49.404;11.034;2022-12-29T11:31:48;2.17;;;1.30;;
75626;SDS011;64211;49.404;11.034;2022-12-29T11:37:13;2.72;;;1.33;;
75626;SDS011;64211;49.404;11.034;2022-12-29T11:42:19;2.63;;;1.52;;
75626;SDS011;64211;49.404;11.034;2022-12-29T11:44:50;2.65;;;1.30;;
75626;SDS011;64211;49.404;11.034;2022-12-29T11:47:25;2.35;;;1.35;;
75626;SDS011;64211;49.404;11.034;2022-12-29T11:49:57;2.53;;;1.40;;
75626;SDS011;64211;49.404;11.034;2022-12-29T11:52:35;1.67;;;1.17;;
75626;SDS011;64211;49.404;11.034;2022-12-29T11:55:04;2.33;;;1.30;;
75626;SDS011;64211;49.404;11.034;2022-12-29T11:57:33;2.10;;;1.10;;
75626;SDS011;64211;49.404;11.034;2022-12-29T12:00:02;2.63;;;1.15;;
75626;SDS011;64211;49.404;11.034;2022-12-29T12:02:40;3.75;;;1.85;;
75626;SDS011;64211;49.404;11.034;2022-12-29T12:07:45;2.15;;;1.40;;
75626;SDS011;64211;49.404;11.034;2022-12-29T12:10:18;4.32;;;1.10;;
75626;SDS011;64211;49.404;11.034;2022-12-29T12:15:36;2.00;;;1.27;;
75626;SDS011;64211;49.404;11.034;2022-12-29T12:18:18;2.63;;;1.40;;
75626;SDS011;64211;49.404;11.034;2022-12-29T12:20:54;2.33;;;1.15;;
75626;SDS011;64211;49.404;11.034;2022-12-29T12:23:28;2.75;;;1.40;;
75626;SDS011;64211;49.404;11.034;2022-12-29T12:26:13;3.33;;;1.40;;
75626;SDS011;64211;49.404;11.034;2022-12-29T12:42:25;2.63;;;1.50;;
75626;SDS011;64211;49.404;11.034;2022-12-29T12:48:18;2.05;;;1.38;;
75626;SDS011;64211;49.404;11.034;2022-12-29T12:59:09;3.17;;;1.40;;
75626;SDS011;64211;49.404;11.034;2022-12-29T13:04:33;2.22;;;1.10;;
75626;SDS011;64211;49.404;11.034;2022-12-29T13:16:02;1.33;;;1.15;;
75626;SDS011;64211;49.404;11.034;2022-12-29T13:18:53;2.35;;;1.40;;
75626;SDS011;64211;49.404;11.034;2022-12-29T13:24:40;3.47;;;1.58;;
75626;SDS011;64211;49.404;11.034;2022-12-29T13:27:12;2.25;;;1.45;;
75626;SDS011;64211;49.404;11.034;2022-12-29T13:29:50;2.60;;;1.42;;
75626;SDS011;64211;49.404;11.034;2022-12-29T13:35:28;3.22;;;1.45;;
75626;SDS011;64211;49.404;11.034;2022-12-29T13:38:07;3.50;;;1.42;;
75626;SDS011;64211;49.404;11.034;2022-12-29T13:40:40;3.00;;;1.40;;
75626;SDS011;64211;49.404;11.034;2022-12-29T13:43:12;2.85;;;1.88;;
75626;SDS011;64211;49.404;11.034;2022-12-29T13:45:40;4.50;;;1.30;;
75626;SDS011;64211;49.404;11.034;2022-12-29T13:48:13;4.05;;;1.90;;
75626;SDS011;64211;49.404;11.034;2022-12-29T13:50:44;3.90;;;2.13;;
75626;SDS011;64211;49.404;11.034;2022-12-29T13:56:01;3.55;;;1.60;;
75626;SDS011;64211;49.404;11.034;2022-12-29T13:58:44;3.72;;;1.48;;
75626;SDS011;64211;49.404;11.034;2022-12-29T14:03:57;4.22;;;1.90;;
75626;SDS011;64211;49.404;11.034;2022-12-29T14:06:29;4.15;;;1.48;;
75626;SDS011;64211;49.404;11.034;2022-12-29T14:08:58;2.60;;;1.45;;
75626;SDS011;64211;49.404;11.034;2022-12-29T14:11:34;2.92;;;1.35;;
75626;SDS011;64211;49.404;11.034;2022-12-29T14:14:19;2.50;;;1.55;;
75626;SDS011;64211;49.404;11.034;2022-12-29T14:19:26;2.75;;;1.50;;
75626;SDS011;64211;49.404;11.034;2022-12-29T14:22:05;5.07;;;2.17;;
75626;SDS011;64211;49.404;11.034;2022-12-29T14:27:19;4.05;;;1.40;;
75626;SDS011;64211;49.404;11.034;2022-12-29T14:29:50;6.50;;;2.55;;
75626;SDS011;64211;49.404;11.034;2022-12-29T14:34:56;6.20;;;2.17;;
75626;SDS011;64211;49.404;11.034;2022-12-29T14:37:25;3.97;;;1.95;;
75626;SDS011;64211;49.404;11.034;2022-12-29T14:42:44;3.65;;;1.90;;
75626;SDS011;64211;49.404;11.034;2022-12-29T14:47:39;4.93;;;2.15;;
75626;SDS011;64211;49.404;11.034;2022-12-29T14:50:11;3.40;;;1.52;;
75626;SDS011;64211;49.404;11.034;2022-12-29T14:58:11;3.17;;;1.92;;
75626;SDS011;64211;49.404;11.034;2022-12-29T15:00:41;3.25;;;2.20;;
75626;SDS011;64211;49.404;11.034;2022-12-29T15:03:20;4.63;;;2.22;;
75626;SDS011;64211;49.404;11.034;2022-12-29T15:06:06;5.28;;;2.05;;
75626;SDS011;64211;49.404;11.034;2022-12-29T15:08:37;2.75;;;1.50;;
75626;SDS011;64211;49.404;11.034;2022-12-29T15:11:46;3.53;;;1.75;;
75626;SDS011;64211;49.404;11.034;2022-12-29T15:14:02;3.20;;;1.80;;
75626;SDS011;64211;49.404;11.034;2022-12-29T15:16:30;2.83;;;1.63;;
75626;SDS011;64211;49.404;11.034;2022-12-29T15:18:58;5.75;;;2.60;;
75626;SDS011;64211;49.404;11.034;2022-12-29T15:21:26;4.50;;;2.22;;
75626;SDS011;64211;49.404;11.034;2022-12-29T15:23:57;4.80;;;2.78;;
75626;SDS011;64211;49.404;11.034;2022-12-29T15:26:34;10.25;;;4.70;;
75626;SDS011;64211;49.404;11.034;2022-12-29T15:29:04;8.90;;;5.80;;
75626;SDS011;64211;49.404;11.034;2022-12-29T15:31:30;6.65;;;2.88;;
75626;SDS011;64211;49.404;11.034;2022-12-29T15:34:09;12.88;;;4.53;;
75626;SDS011;64211;49.404;11.034;2022-12-29T15:36:38;14.77;;;5.22;;
75626;SDS011;64211;49.404;11.034;2022-12-29T15:39:19;16.38;;;5.50;;
75626;SDS011;64211;49.404;11.034;2022-12-29T15:41:48;16.38;;;6.65;;
75626;SDS011;64211;49.404;11.034;2022-12-29T15:44:23;6.65;;;3.17;;
75626;SDS011;64211;49.404;11.034;2022-12-29T15:46:52;8.48;;;3.67;;
75626;SDS011;64211;49.404;11.034;2022-12-29T15:49:19;19.45;;;6.65;;
75626;SDS011;64211;49.404;11.034;2022-12-29T15:51:46;9.60;;;4.00;;
75626;SDS011;64211;49.404;11.034;2022-12-29T15:54:19;14.23;;;5.28;;
75626;SDS011;64211;49.404;11.034;2022-12-29T15:56:48;15.38;;;5.30;;
75626;SDS011;64211;49.404;11.034;2022-12-29T15:59:31;28.95;;;11.35;;
75626;SDS011;64211;49.404;11.034;2022-12-29T16:02:00;18.17;;;7.57;;
75626;SDS011;64211;49.404;11.034;2022-12-29T16:04:40;14.88;;;4.70;;
75626;SDS011;64211;49.404;11.034;2022-12-29T16:07:31;19.92;;;5.25;;
75626;SDS011;64211;49.404;11.034;2022-12-29T16:10:21;6.13;;;2.60;;
75626;SDS011;64211;49.404;11.034;2022-12-29T16:13:03;9.57;;;3.58;;
75626;SDS011;64211;49.404;11.034;2022-12-29T16:15:38;14.02;;;5.20;;
75626;SDS011;64211;49.404;11.034;2022-12-29T16:18:05;14.30;;;5.55;;
75626;SDS011;64211;49.404;11.034;2022-12-29T16:20:34;12.77;;;5.25;;
75626;SDS011;64211;49.404;11.034;2022-12-29T16:23:09;12.18;;;4.43;;
75626;SDS011;64211;49.404;11.034;2022-12-29T16:28:16;13.68;;;4.65;;
75626;SDS011;64211;49.404;11.034;2022-12-29T16:30:56;10.18;;;4.38;;
75626;SDS011;64211;49.404;11.034;2022-12-29T16:33:46;7.72;;;3.35;;
75626;SDS011;64211;49.404;11.034;2022-12-29T16:36:23;12.55;;;5.90;;
75626;SDS011;64211;49.404;11.034;2022-12-29T16:38:51;8.90;;;5.90;;
75626;SDS011;64211;49.404;11.034;2022-12-29T16:41:37;9.52;;;4.82;;
75626;SDS011;64211;49.404;11.034;2022-12-29T16:46:44;10.38;;;3.95;;
75626;SDS011;64211;49.404;11.034;2022-12-29T16:49:22;13.32;;;5.05;;
75626;SDS011;64211;49.404;11.034;2022-12-29T16:51:48;12.93;;;5.75;;
75626;SDS011;64211;49.404;11.034;2022-12-29T16:54:19;5.72;;;3.80;;
75626;SDS011;64211;49.404;11.034;2022-12-29T16:56:49;7.85;;;3.28;;
75626;SDS011;64211;49.404;11.034;2022-12-29T16:59:33;9.95;;;4.72;;
75626;SDS011;64211;49.404;11.034;2022-12-29T17:02:06;9.18;;;4.00;;
75626;SDS011;64211;49.404;11.034;2022-12-29T17:04:34;10.02;;;4.95;;
75626;SDS011;64211;49.404;11.034;2022-12-29T17:07:01;8.70;;;4.47;;
75626;SDS011;64211;49.404;11.034;2022-12-29T17:09:27;6.97;;;3.28;;
75626;SDS011;64211;49.404;11.034;2022-12-29T17:11:55;6.32;;;3.40;;
75626;SDS011;64211;49.404;11.034;2022-12-29T17:19:51;19.00;;;7.10;;